createdAt,value
2022-10-14T00:01:23.868Z,46.03
2022-10-14T00:03:52.052Z,45.20
2022-10-14T00:06:22.839Z,48.03
2022-10-14T00:08:50.444Z,49.53
2022-10-14T00:11:21.673Z,47.70
2022-10-14T00:13:49.710Z,49.13
2022-10-14T00:16:22.250Z,45.63
2022-10-14T00:18:50.088Z,52.43
2022-10-14T00:21:18.061Z,49.97
2022-10-14T00:23:46.824Z,47.67
2022-10-14T00:26:23.617Z,47.17
2022-10-14T00:28:52.309Z,43.83
2022-10-14T00:31:19.861Z,42.00
2022-10-14T00:33:47.605Z,41.90
2022-10-14T00:36:16.984Z,43.23
2022-10-14T00:38:45.947Z,42.73
2022-10-14T00:41:15.309Z,44.20
2022-10-14T00:44:10.341Z,42.00
2022-10-14T00:46:48.125Z,42.70
2022-10-14T00:49:38.675Z,38.87
2022-10-14T00:52:14.017Z,38.47
2022-10-14T00:55:03.667Z,39.37
2022-10-14T00:57:31.995Z,34.53
2022-10-14T01:00:06.050Z,31.13
2022-10-14T01:02:33.592Z,28.63
2022-10-14T01:05:01.792Z,29.77
2022-10-14T01:07:47.654Z,29.73
2022-10-14T01:10:30.147Z,30.47
2022-10-14T01:13:07.222Z,32.20
2022-10-14T01:15:38.009Z,31.27
2022-10-14T01:18:29.783Z,30.73
2022-10-14T01:21:41.555Z,32.27
2022-10-14T01:24:19.809Z,33.83
2022-10-14T01:27:35.795Z,44.13
2022-10-14T01:30:03.051Z,44.30
2022-10-14T01:33:00.518Z,37.63
2022-10-14T01:35:42.274Z,39.00
2022-10-14T01:38:25.685Z,40.30
2022-10-14T01:41:10.369Z,41.80
2022-10-14T01:43:40.410Z,40.37
2022-10-14T01:46:10.675Z,37.67
2022-10-14T01:48:42.060Z,38.67
2022-10-14T01:51:19.065Z,38.77
2022-10-14T01:54:04.833Z,35.73
2022-10-14T01:56:39.516Z,37.27
2022-10-14T01:59:10.633Z,38.47
2022-10-14T02:01:38.971Z,43.20
2022-10-14T02:04:26.715Z,38.87
2022-10-14T02:07:19.003Z,42.30
2022-10-14T02:10:10.904Z,41.70
2022-10-14T02:13:18.444Z,37.03
2022-10-14T02:15:48.716Z,36.00
2022-10-14T02:18:36.933Z,36.20
2022-10-14T02:21:24.845Z,32.47
2022-10-14T02:23:57.768Z,31.17
2022-10-14T02:26:26.781Z,30.10
2022-10-14T02:28:55.692Z,30.40
2022-10-14T02:31:25.331Z,29.57
2022-10-14T02:33:55.866Z,30.13
2022-10-14T02:36:25.464Z,33.33
2022-10-14T02:38:56.438Z,32.10
2022-10-14T02:41:27.007Z,30.90
2022-10-14T02:43:54.281Z,31.57
2022-10-14T02:46:23.118Z,31.10
2022-10-14T02:48:50.737Z,29.87
2022-10-14T02:51:18.341Z,30.43
2022-10-14T02:53:45.649Z,33.73
2022-10-14T02:56:14.442Z,31.10
2022-10-14T02:58:42.262Z,33.20
2022-10-14T03:01:10.283Z,30.17
2022-10-14T03:03:37.732Z,31.60
2022-10-14T03:06:05.529Z,35.00
2022-10-14T03:08:33.197Z,32.77
2022-10-14T03:11:00.508Z,34.37
2022-10-14T03:13:27.912Z,34.67
2022-10-14T03:15:55.152Z,36.13
2022-10-14T03:18:22.513Z,35.37
2022-10-14T03:20:50.070Z,34.07
2022-10-14T03:23:17.875Z,34.73
2022-10-14T03:25:48.877Z,35.33
2022-10-14T03:28:16.278Z,33.27
2022-10-14T03:30:43.689Z,34.00
2022-10-14T03:33:14.750Z,32.70
2022-10-14T03:35:42.703Z,32.23
2022-10-14T03:38:10.033Z,32.63
2022-10-14T03:40:37.393Z,32.67
2022-10-14T03:43:04.823Z,32.47
2022-10-14T03:45:32.201Z,32.20
2022-10-14T03:47:59.555Z,32.73
2022-10-14T03:50:27.049Z,35.73
2022-10-14T03:52:55.766Z,32.83
2022-10-14T03:55:23.875Z,38.70
2022-10-14T03:57:52.042Z,35.10
2022-10-14T04:00:19.560Z,33.77
2022-10-14T04:02:47.092Z,32.87
2022-10-14T04:05:15.045Z,31.60
2022-10-14T04:07:42.369Z,32.60
2022-10-14T04:10:09.886Z,33.97
2022-10-14T04:12:37.176Z,31.53
2022-10-14T04:15:04.755Z,31.60
2022-10-14T04:17:32.069Z,33.27
2022-10-14T04:19:59.335Z,32.67
2022-10-14T04:22:26.757Z,39.23
2022-10-14T04:24:54.013Z,32.37
2022-10-14T04:27:21.394Z,31.30
2022-10-14T04:29:48.742Z,31.03
2022-10-14T04:32:16.077Z,34.77
2022-10-14T04:34:43.325Z,31.30
2022-10-14T04:37:10.930Z,34.37
2022-10-14T04:39:38.347Z,41.37
2022-10-14T04:42:05.853Z,49.93
2022-10-14T04:44:33.215Z,43.17
2022-10-14T04:47:00.536Z,40.63
2022-10-14T04:49:27.807Z,39.17
2022-10-14T04:51:55.118Z,36.90
2022-10-14T04:54:23.745Z,36.67
2022-10-14T04:56:51.691Z,35.17
2022-10-14T04:59:19.018Z,33.57
2022-10-14T05:01:46.579Z,32.93
2022-10-14T05:04:14.353Z,37.33
2022-10-14T05:06:41.918Z,35.27
2022-10-14T05:09:09.281Z,33.13
2022-10-14T05:11:36.715Z,34.47
2022-10-14T05:14:04.100Z,37.33
2022-10-14T05:16:31.499Z,39.17
2022-10-14T05:18:58.794Z,47.47
2022-10-14T05:21:26.368Z,43.70
2022-10-14T05:23:53.705Z,41.27
2022-10-14T05:26:20.960Z,45.87
2022-10-14T05:28:49.443Z,42.83
2022-10-14T05:31:16.729Z,43.23
2022-10-14T05:33:44.228Z,41.13
2022-10-14T05:36:11.855Z,40.60
2022-10-14T05:38:39.646Z,40.80
2022-10-14T05:41:07.059Z,45.77
2022-10-14T05:43:34.543Z,41.00
2022-10-14T05:46:01.866Z,40.27
2022-10-14T05:48:29.274Z,39.80
2022-10-14T05:50:56.598Z,40.87
2022-10-14T05:53:24.152Z,39.43
2022-10-14T05:55:51.492Z,35.90
2022-10-14T05:58:18.811Z,36.20
2022-10-14T06:00:46.239Z,37.10
2022-10-14T06:03:13.859Z,35.33
2022-10-14T06:05:41.317Z,36.50
2022-10-14T06:08:09.280Z,35.20
2022-10-14T06:10:36.872Z,36.10
2022-10-14T06:13:04.464Z,36.00
2022-10-14T06:15:31.781Z,35.47
2022-10-14T06:17:59.569Z,36.50
2022-10-14T06:20:27.258Z,40.07
2022-10-14T06:22:54.645Z,39.63
2022-10-14T06:25:21.908Z,36.70
2022-10-14T06:27:49.165Z,37.17
2022-10-14T06:30:16.602Z,36.70
2022-10-14T06:32:43.968Z,40.47
2022-10-14T06:35:12.253Z,38.03
2022-10-14T06:37:40.404Z,38.53
2022-10-14T06:40:08.181Z,37.80
2022-10-14T06:42:36.674Z,40.17
2022-10-14T06:45:04.832Z,41.37
2022-10-14T06:47:32.676Z,44.50
2022-10-14T06:50:00.146Z,40.33
2022-10-14T06:52:27.548Z,38.20
2022-10-14T06:54:54.949Z,38.87
2022-10-14T06:57:22.448Z,35.27
2022-10-14T06:59:49.756Z,35.00
2022-10-14T07:02:17.123Z,35.00
2022-10-14T07:04:44.565Z,35.77
2022-10-14T07:07:11.941Z,34.10
2022-10-14T07:09:39.409Z,35.70
2022-10-14T07:12:06.829Z,33.97
2022-10-14T07:14:34.346Z,36.87
2022-10-14T07:17:01.850Z,37.93
2022-10-14T07:19:29.118Z,33.37
2022-10-14T07:21:56.483Z,32.93
2022-10-14T07:24:23.823Z,34.73
2022-10-14T07:26:51.381Z,31.67
2022-10-14T07:29:19.174Z,31.43
2022-10-14T07:31:46.551Z,33.60
2022-10-14T07:34:13.978Z,31.57
2022-10-14T07:36:41.262Z,32.97
2022-10-14T07:39:08.788Z,30.90
2022-10-14T07:41:36.241Z,30.53
2022-10-14T07:44:09.725Z,29.43
2022-10-14T07:46:40.524Z,28.13
2022-10-14T07:49:22.380Z,27.90
2022-10-14T07:51:49.730Z,32.17
2022-10-14T07:54:24.253Z,26.83
2022-10-14T07:56:51.807Z,23.73
2022-10-14T07:59:20.884Z,24.83
2022-10-14T08:01:49.655Z,24.97
2022-10-14T08:04:18.185Z,24.27
2022-10-14T08:06:48.568Z,25.07
2022-10-14T08:09:16.090Z,24.77
2022-10-14T08:11:44.690Z,24.20
2022-10-14T08:14:12.439Z,23.40
2022-10-14T08:16:40.123Z,20.00
2022-10-14T08:19:14.230Z,19.33
2022-10-14T08:21:43.683Z,19.17
2022-10-14T08:24:12.469Z,19.83
2022-10-14T08:26:49.354Z,16.73
2022-10-14T08:29:16.859Z,15.80
2022-10-14T08:31:44.213Z,16.80
2022-10-14T08:34:11.892Z,16.57
2022-10-14T08:36:39.763Z,17.07
2022-10-14T08:39:08.056Z,16.70
2022-10-14T08:41:44.236Z,16.30
2022-10-14T08:44:18.369Z,16.30
2022-10-14T08:46:56.312Z,15.80
2022-10-14T08:49:42.531Z,15.70
2022-10-14T08:52:16.219Z,16.73
2022-10-14T08:54:51.568Z,14.00
2022-10-14T08:57:25.286Z,14.40
2022-10-14T08:59:54.266Z,14.27
2022-10-14T09:02:35.245Z,14.80
2022-10-14T09:05:06.687Z,13.65
2022-10-14T09:07:38.378Z,12.68
2022-10-14T09:10:15.683Z,12.40
2022-10-14T09:12:45.448Z,13.48
2022-10-14T09:15:43.402Z,12.63
2022-10-14T09:18:42.616Z,12.65
2022-10-14T09:21:40.828Z,11.82
2022-10-14T09:24:29.453Z,12.25
2022-10-14T09:27:03.071Z,12.50
2022-10-14T09:29:59.195Z,12.05
2022-10-14T09:32:32.200Z,12.60
2022-10-14T09:35:00.567Z,11.30
2022-10-14T09:37:36.505Z,11.38
2022-10-14T09:40:09.676Z,12.63
2022-10-14T09:42:52.740Z,11.77
2022-10-14T09:45:25.417Z,10.32
2022-10-14T09:47:59.828Z,10.77
2022-10-14T09:50:40.673Z,9.27
2022-10-14T09:53:17.062Z,9.38
2022-10-14T09:55:56.010Z,9.40
2022-10-14T09:58:48.338Z,9.18
2022-10-14T10:01:24.617Z,8.27
2022-10-14T10:03:54.692Z,8.65
2022-10-14T10:06:27.208Z,8.70
2022-10-14T10:08:54.433Z,10.30
2022-10-14T10:11:41.745Z,8.48
2022-10-14T10:14:32.781Z,8.07
2022-10-14T10:17:10.176Z,8.35
2022-10-14T10:19:41.260Z,8.82
2022-10-14T10:22:20.935Z,9.05
2022-10-14T10:24:53.076Z,9.02
2022-10-14T10:27:25.216Z,8.10
2022-10-14T10:29:56.979Z,7.85
2022-10-14T10:32:44.402Z,8.02
2022-10-14T10:35:39.062Z,8.10
2022-10-14T10:38:36.321Z,8.02
2022-10-14T10:41:19.710Z,8.20
2022-10-14T10:44:10.623Z,8.45
2022-10-14T10:46:37.900Z,7.78
2022-10-14T10:49:33.195Z,8.55
2022-10-14T10:52:29.108Z,8.40
2022-10-14T10:55:11.999Z,9.27
2022-10-14T10:57:53.302Z,9.85
2022-10-14T11:00:26.776Z,10.35
2022-10-14T11:03:12.353Z,9.82
2022-10-14T11:05:54.480Z,13.10
2022-10-14T11:08:55.166Z,9.18
2022-10-14T11:12:03.841Z,7.95
2022-10-14T11:14:54.671Z,9.55
2022-10-14T11:17:50.224Z,9.98
2022-10-14T11:20:55.734Z,9.45
2022-10-14T11:23:44.474Z,8.13
2022-10-14T11:26:48.046Z,7.55
2022-10-14T11:29:43.634Z,7.88
2022-10-14T11:32:40.134Z,7.55
2022-10-14T11:35:45.665Z,7.18
2022-10-14T11:38:39.052Z,7.88
2022-10-14T11:41:06.292Z,7.32
2022-10-14T11:43:42.918Z,7.88
2022-10-14T11:46:14.561Z,7.43
2022-10-14T11:48:56.059Z,8.65
2022-10-14T11:52:04.488Z,7.68
2022-10-14T11:54:40.943Z,8.18
2022-10-14T11:57:32.594Z,7.07
2022-10-14T12:00:24.302Z,8.13
2022-10-14T12:03:34.758Z,7.68
2022-10-14T12:06:05.408Z,7.10
2022-10-14T12:08:53.153Z,7.07
2022-10-14T12:11:42.209Z,7.15
2022-10-14T12:14:15.269Z,7.18
2022-10-14T12:16:45.372Z,7.72
2022-10-14T12:19:16.420Z,7.60
2022-10-14T12:21:55.937Z,7.40
2022-10-14T12:24:31.106Z,8.57
2022-10-14T12:27:02.035Z,8.57
2022-10-14T12:29:35.456Z,8.18
2022-10-14T12:32:05.605Z,8.73
2022-10-14T12:34:43.819Z,9.07
2022-10-14T12:37:38.322Z,9.20
2022-10-14T12:40:09.927Z,9.48
2022-10-14T12:42:50.345Z,9.20
2022-10-14T12:45:26.467Z,10.15
2022-10-14T12:48:21.900Z,10.07
2022-10-14T12:50:59.535Z,10.18
2022-10-14T12:53:32.396Z,10.27
2022-10-14T12:56:04.958Z,11.52
2022-10-14T12:58:36.682Z,9.98
2022-10-14T13:01:24.144Z,9.70
2022-10-14T13:06:43.038Z,9.95
2022-10-14T13:09:13.173Z,9.48
2022-10-14T13:11:46.034Z,7.90
2022-10-14T13:14:27.434Z,8.40
2022-10-14T13:16:58.193Z,9.70
2022-10-14T13:19:34.712Z,9.27
2022-10-14T13:22:23.103Z,10.53
2022-10-14T13:24:50.609Z,11.67
2022-10-14T13:27:55.860Z,9.77
2022-10-14T13:31:01.560Z,8.83
2022-10-14T13:33:40.128Z,9.27
2022-10-14T13:36:34.137Z,8.63
2022-10-14T13:39:02.492Z,8.23
2022-10-14T13:41:31.707Z,8.55
2022-10-14T13:44:01.225Z,9.32
2022-10-14T13:46:37.898Z,10.13
2022-10-14T13:49:08.531Z,11.23
2022-10-14T13:51:58.119Z,10.68
2022-10-14T13:54:28.943Z,9.45
2022-10-14T14:02:51.871Z,19.13
2022-10-14T14:05:23.276Z,20.43
2022-10-14T14:11:03.707Z,16.70
2022-10-14T14:13:30.920Z,19.30
2022-10-14T14:15:59.099Z,13.00
2022-10-14T14:18:55.790Z,13.53
2022-10-14T14:21:26.253Z,13.00
2022-10-14T14:23:58.568Z,13.23
2022-10-14T14:26:44.210Z,14.47
2022-10-14T14:29:20.773Z,18.07
2022-10-14T14:32:05.630Z,44.77
2022-10-14T14:34:36.493Z,21.33
2022-10-14T14:40:16.158Z,29.80
2022-10-14T14:42:45.563Z,28.63
2022-10-14T14:45:39.386Z,27.42
2022-10-14T14:48:09.243Z,26.42
2022-10-14T14:50:43.264Z,18.95
2022-10-14T14:53:29.821Z,13.40
2022-10-14T14:55:57.079Z,11.27
2022-10-14T14:58:49.935Z,11.63
2022-10-14T15:01:25.773Z,11.83
2022-10-14T15:04:11.893Z,12.13
2022-10-14T15:06:50.792Z,15.53
2022-10-14T15:09:26.558Z,13.43
2022-10-14T15:12:00.554Z,12.53
2022-10-14T15:14:35.264Z,11.93
2022-10-14T15:17:05.917Z,12.30
2022-10-14T15:19:38.371Z,14.90
2022-10-14T15:22:33.005Z,14.10
2022-10-14T15:25:18.540Z,12.43
2022-10-14T15:28:00.515Z,13.40
2022-10-14T15:30:33.148Z,14.23
2022-10-14T15:33:03.679Z,14.97
2022-10-14T15:35:32.393Z,15.20
2022-10-14T15:37:59.827Z,11.30
2022-10-14T15:40:30.660Z,10.90
2022-10-14T15:42:59.250Z,8.97
2022-10-14T15:45:27.063Z,9.40
2022-10-14T15:50:29.893Z,10.90
2022-10-14T15:52:57.300Z,9.73
2022-10-14T15:55:27.782Z,10.20
2022-10-14T15:57:55.065Z,12.03
2022-10-14T16:00:25.927Z,10.60
2022-10-14T16:02:59.269Z,9.87
2022-10-14T16:05:29.839Z,10.30
2022-10-14T16:07:58.703Z,9.53
2022-10-14T16:10:29.298Z,13.10
2022-10-14T16:12:59.480Z,16.77
2022-10-14T16:15:38.542Z,16.07
2022-10-14T16:18:06.052Z,21.97
2022-10-14T16:20:34.150Z,26.27
2022-10-14T16:23:04.800Z,25.80
2022-10-14T16:25:39.336Z,31.13
2022-10-14T16:28:10.130Z,51.87
2022-10-14T16:30:42.175Z,69.77
2022-10-14T16:35:39.049Z,71.50
2022-10-14T16:38:06.487Z,72.27
2022-10-14T16:40:36.733Z,75.60
2022-10-14T16:43:04.788Z,70.87
2022-10-14T16:45:32.123Z,84.37
2022-10-14T16:47:59.332Z,88.87
2022-10-14T16:50:26.570Z,58.23
2022-10-14T16:53:12.270Z,41.93
2022-10-14T16:55:39.632Z,15.33
2022-10-14T16:58:07.188Z,14.27
2022-10-14T17:00:38.309Z,15.30
2022-10-14T17:03:08.142Z,14.60
2022-10-14T17:05:35.541Z,13.20
2022-10-14T17:08:02.947Z,14.10
2022-10-14T17:10:30.337Z,14.93
2022-10-14T17:12:57.796Z,15.93
2022-10-14T17:15:25.320Z,19.03
2022-10-14T17:17:53.857Z,24.40
2022-10-14T17:20:22.215Z,42.40
2022-10-14T17:22:50.301Z,46.17
2022-10-14T17:25:18.239Z,47.20
2022-10-14T17:27:47.161Z,52.50
2022-10-14T17:30:14.936Z,62.67
2022-10-14T17:32:42.613Z,86.40
2022-10-14T17:35:12.895Z,83.50
2022-10-14T17:37:42.827Z,82.00
2022-10-14T17:40:10.677Z,79.90
2022-10-14T17:42:38.678Z,76.50
2022-10-14T17:45:06.738Z,72.57
2022-10-14T17:47:35.297Z,73.17
2022-10-14T17:50:04.786Z,70.57
2022-10-14T17:52:33.680Z,69.07
2022-10-14T17:55:01.662Z,72.33
2022-10-14T17:57:30.157Z,82.50
2022-10-14T17:59:58.735Z,96.40
2022-10-14T18:02:26.392Z,93.87
2022-10-14T18:04:54.274Z,90.07
2022-10-14T18:07:23.489Z,85.93
2022-10-14T18:09:51.183Z,83.53
2022-10-14T18:12:18.793Z,85.03
2022-10-14T18:14:46.558Z,80.97
2022-10-14T18:17:15.482Z,89.63
2022-10-14T18:19:46.077Z,82.20
2022-10-14T18:22:16.584Z,82.90
2022-10-14T18:24:44.656Z,77.80
2022-10-14T18:27:12.050Z,77.27
2022-10-14T18:29:39.693Z,75.20
2022-10-14T18:32:07.040Z,77.97
2022-10-14T18:34:34.567Z,91.57
2022-10-14T18:37:01.951Z,78.90
2022-10-14T18:39:29.548Z,92.80
2022-10-14T18:41:56.953Z,109.17
2022-10-14T18:44:24.372Z,103.70
2022-10-14T18:46:51.837Z,94.30
2022-10-14T18:49:19.375Z,95.03
2022-10-14T18:51:46.837Z,91.70
2022-10-14T18:54:19.946Z,95.23
2022-10-14T18:56:47.849Z,96.97
2022-10-14T18:59:18.330Z,102.37
2022-10-14T19:01:46.863Z,106.07
2022-10-14T19:04:16.170Z,86.43
2022-10-14T19:06:49.051Z,75.97
2022-10-14T19:09:18.902Z,113.93
2022-10-14T19:11:50.809Z,94.13
2022-10-14T19:14:18.449Z,66.20
2022-10-14T19:16:47.751Z,51.93
2022-10-14T19:19:19.146Z,65.17
2022-10-14T19:21:50.003Z,47.17
2022-10-14T19:24:17.707Z,53.00
2022-10-14T19:26:46.863Z,53.70
2022-10-14T19:29:16.093Z,52.50
2022-10-14T19:31:44.547Z,38.90
2022-10-14T19:34:15.643Z,35.57
2022-10-14T19:36:43.787Z,36.80
2022-10-14T19:39:14.350Z,35.63
2022-10-14T19:41:46.909Z,34.37
2022-10-14T19:44:15.714Z,29.67
2022-10-14T19:46:44.334Z,26.10
2022-10-14T19:49:13.627Z,24.70
2022-10-14T19:51:41.298Z,27.37
2022-10-14T19:54:11.500Z,24.90
2022-10-14T19:56:38.897Z,26.40
2022-10-14T19:59:07.666Z,26.67
2022-10-14T20:01:35.929Z,27.63
2022-10-14T20:04:03.548Z,27.00
2022-10-14T20:06:34.144Z,27.20
2022-10-14T20:09:01.905Z,33.40
2022-10-14T20:11:30.029Z,42.87
2022-10-14T20:13:57.776Z,47.67
2022-10-14T20:16:26.572Z,31.40
2022-10-14T20:18:53.861Z,26.57
2022-10-14T20:21:21.227Z,31.77
2022-10-14T20:23:48.527Z,31.37
2022-10-14T20:26:18.668Z,35.73
2022-10-14T20:28:46.502Z,40.03
2022-10-14T20:31:16.378Z,39.13
2022-10-14T20:33:43.968Z,35.87
2022-10-14T20:36:12.846Z,31.93
2022-10-14T20:38:41.411Z,32.90
2022-10-14T20:41:12.490Z,31.77
2022-10-14T20:43:41.358Z,31.57
2022-10-14T20:46:08.775Z,29.93
2022-10-14T20:48:37.672Z,29.97
2022-10-14T20:51:10.394Z,29.03
2022-10-14T20:53:38.121Z,38.83
2022-10-14T20:56:11.397Z,37.93
2022-10-14T20:58:38.965Z,37.63
2022-10-14T21:01:17.819Z,39.23
2022-10-14T21:03:46.921Z,37.63
2022-10-14T21:06:18.581Z,36.47
2022-10-14T21:08:46.080Z,35.33
2022-10-14T21:11:15.704Z,33.07
2022-10-14T21:13:47.887Z,32.23
2022-10-14T21:16:24.869Z,32.07
2022-10-14T21:18:58.252Z,35.80
2022-10-14T21:21:28.071Z,34.53
2022-10-14T21:23:56.213Z,34.90
2022-10-14T21:26:23.936Z,40.20
2022-10-14T21:28:51.476Z,40.97
2022-10-14T21:31:20.800Z,35.77
2022-10-14T21:33:49.357Z,34.10
2022-10-14T21:36:17.601Z,32.17
2022-10-14T21:38:45.467Z,35.20
2022-10-14T21:41:13.121Z,33.67
2022-10-14T21:43:40.821Z,32.13
2022-10-14T21:46:10.929Z,35.57
2022-10-14T21:48:38.938Z,34.60
2022-10-14T21:51:15.251Z,30.07
2022-10-14T21:53:44.022Z,26.63
2022-10-14T21:56:13.345Z,29.37
2022-10-14T21:58:41.648Z,27.73
2022-10-14T22:01:10.875Z,27.43
2022-10-14T22:03:39.216Z,33.20
2022-10-14T22:06:09.688Z,33.73
2022-10-14T22:08:39.669Z,38.33
2022-10-14T22:11:08.657Z,34.07
2022-10-14T22:13:36.726Z,33.43
2022-10-14T22:16:04.356Z,31.30
2022-10-14T22:18:32.764Z,30.50
2022-10-14T22:21:07.066Z,30.80
2022-10-14T22:23:34.925Z,32.53
2022-10-14T22:26:04.755Z,34.23
2022-10-14T22:28:32.706Z,36.30
2022-10-14T22:31:15.450Z,34.27
2022-10-14T22:33:43.504Z,36.37
2022-10-14T22:36:28.689Z,34.93
2022-10-14T22:38:57.930Z,35.27
2022-10-14T22:41:29.822Z,33.90
2022-10-14T22:44:00.186Z,33.17
2022-10-14T22:46:30.303Z,44.27
2022-10-14T22:48:59.433Z,41.73
2022-10-14T22:51:32.677Z,30.73
2022-10-14T22:54:00.607Z,30.43
2022-10-14T22:56:30.384Z,28.47
2022-10-14T22:59:03.148Z,26.80
2022-10-14T23:01:31.000Z,25.53
2022-10-14T23:03:59.251Z,27.53
2022-10-14T23:06:27.163Z,26.80
2022-10-14T23:08:59.151Z,27.10
2022-10-14T23:11:27.113Z,31.10
2022-10-14T23:13:54.949Z,84.33
2022-10-14T23:16:24.969Z,45.10
2022-10-14T23:18:54.144Z,41.50
2022-10-14T23:21:26.687Z,43.90
2022-10-14T23:23:57.634Z,47.77
2022-10-14T23:26:29.224Z,36.20
2022-10-14T23:28:58.725Z,32.87
2022-10-14T23:31:28.991Z,31.07
2022-10-14T23:34:00.205Z,30.67
2022-10-14T23:36:27.928Z,29.57
2022-10-14T23:38:56.414Z,31.83
2022-10-14T23:41:24.209Z,35.37
2022-10-14T23:43:52.474Z,31.83
2022-10-14T23:46:20.931Z,29.10
2022-10-14T23:48:55.917Z,30.30
2022-10-14T23:51:35.688Z,28.20
2022-10-14T23:54:03.426Z,32.40
2022-10-14T23:56:32.028Z,46.03
2022-10-14T23:58:59.536Z,43.67
